x

Onslow Bay Outer, Nc (41036) Wave Buoy

4:50pm - Tue 29th Jul 2014 All times are EDT. -4 hours from GMT.

  • Sig Wave height 3.6ft
  • Swell Direction
  • Peak Period 7s
  • Average Period 5s
  • Wind
    11mph
  • Sea Temp 82°f
  • Air Temp 79°f
  • Sea Pressure 1012.9mb
  • Onslow Bay Outer, Nc
  • Onslow Bay Outer, Nc

More Historic Weather Station data

Upgrade to MSW Pro to gain access to the past 30 days of data for over 8000 Wavebouys and Weather Stations around the globe.

Join Pro

Comparision Forecast

View Surf forecast
   
Tue 07/29 4:50pm 3.5ft 7s 5s 11
mph
1012.9mb 82f 79f
4:20pm  -   -   -  11 13 mph 1012.9mb 82f 79f
3:50pm 3.5ft 7s 5s 11 13 mph 1012.7mb 82f 79f
3:20pm  -   -   -  11 13 mph 1012.6mb 82f 79f
2:50pm 3.5ft 7s 5s 13 16 mph 1012.7mb 82f 79f
2:20pm  -   -   -  13 16 mph 1012.8mb 82f 79f
1:50pm 3.5ft 7s 5s 13 16 mph 1012.8mb 81f 79f
1:20pm  -   -   -  13 16 mph 1013.1mb 81f 79f
12:50pm 3.5ft 7s 5s 13 18 mph 1012.9mb 81f 78f
12:20pm  -   -   -  16 18 mph 1012.7mb 81f 78f
11:50am 4ft 7s 5s 16 18 mph 1012.6mb 81f 78f
11:20am  -   -   -  16 18 mph 1012.4mb 81f 78f
10:50am 4ft 7s 5s 16 18 mph 1012.3mb 81f 77f
10:20am  -   -   -  16 20 mph 1012.1mb 81f 77f
9:50am 4ft 6s 5s 16 20 mph 1011.8mb 81f 77f
9:20am  -   -   -  16 20 mph 1011.7mb 81f 78f
8:50am 4ft 6s 5s 18 20 mph 1011.6mb 81f 78f
8:20am  -   -   -  18 20 mph 1011.5mb 81f 78f
7:50am 4ft 7s 5s 18 20 mph 1011.2mb 81f 78f
7:20am  -   -   -  18 20 mph 1011.2mb 81f 78f
6:50am 4ft 7s 5s 16 20 mph 1011.1mb 81f 79f
6:20am  -   -   -  20 22 mph 1010.7mb 81f 79f
5:50am 4ft 7s 5s 18 22 mph 1010.7mb 81f 79f
5:20am  -   -   -  18 20 mph 1010.8mb 81f 80f
4:50am 3.5ft 6s 5s 18 20 mph 1010.6mb 81f 80f
4:20am  -   -   -  18 20 mph 1010.5mb 81f 80f
3:50am 4ft 6s 5s 18 20 mph 1010.3mb 81f 81f
3:20am  -   -   -  16 20 mph 1009.7mb 81f 81f
2:50am 4.5ft 6s 5s 16 18 mph 1009.8mb 81f 81f
2:20am  -   -   -  9 11 mph 1010mb 81f 80f
1:50am 4ft 6s 5s 7 9 mph 1010.1mb 81f 80f
1:20am  -   -   -  11 13 mph 1009.5mb 81f 80f
12:50am 4ft 6s 5s 13 16 mph 1009.7mb 81f 80f
12:20am  -   -   -  13 16 mph 1009.6mb 81f 80f
Mon 07/28 11:50pm 4ft 6s 5s 13 16 mph 1009.9mb 81f 80f
11:20pm  -   -   -  16 18 mph 1009.9mb 81f 81f
10:50pm 4ft 6s 5s 18 20 mph 1009.9mb 81f 80f
10:20pm  -   -   -  18 22 mph 1010.3mb 82f 80f
9:50pm 4ft 7s 5s 7
mph
1009.3mb 82f 78f
9:20pm  -   -   -  7 9 mph 1009.6mb 82f 79f
8:50pm 4.5ft 6s 5s 9
mph
1009.6mb 82f 78f
8:20pm  -   -   -  20 25 mph 1009.7mb 82f 78f
7:50pm 5ft 6s 4s 22 25 mph 1008.9mb 82f 78f
7:20pm  -   -   -  29 34 mph 1008.7mb 82f 82f
6:50pm 4.5ft 7s 5s 20 27 mph 1008.7mb 82f 82f
6:20pm  -   -   -  18 20 mph 1007.6mb 82f 82f
5:50pm 4ft 7s 5s 16 20 mph 1008.1mb 82f 82f
5:20pm  -   -   -  13 18 mph 1008.6mb 82f 82f
4:50pm 4.5ft 7s 5s 11 13 mph 1008.5mb 82f 83f
4:20pm  -   -   -  13 16 mph 1009mb 82f 83f
3:50pm 4.5ft 7s 5s 16 18 mph 1008.9mb 82f 83f
3:20pm  -   -   -  16 20 mph 1009mb 82f 82f
2:50pm 4.5ft 7s 5s 18 20 mph 1009.1mb 82f 82f
2:20pm  -   -   -  16 20 mph 1009.5mb 82f 82f
1:50pm 4.5ft 6s 5s 16 18 mph 1009.8mb 82f 82f
1:20pm  -   -   -  16 18 mph 1010mb 82f 83f
12:50pm 5ft 6s 5s 16 18 mph 1010.1mb 82f 83f
12:20pm  -   -   -  13 16 mph 1010.3mb 82f 82f
11:50am 5ft 6s 5s 13 16 mph 1010.3mb 82f 83f
11:20am  -   -   -  13 16 mph 1010.3mb 82f 83f
10:50am 5ft 6s 5s 13 18 mph 1010.1mb 82f 83f
10:20am  -   -   -  13 16 mph 1009.9mb 82f 83f
9:50am 6ft 6s 5s 16 18 mph 1009.7mb 82f 83f
9:20am  -   -   -  16 18 mph 1009.4mb 82f 83f
8:50am 6ft 6s 5s 18 20 mph 1009.4mb 82f 83f
8:20am  -   -   -  16 18 mph 1009.6mb 82f 83f
7:50am 6ft 6s 5s 16 20 mph 1009.4mb 82f 83f
7:20am  -   -   -  18 22 mph 1009.5mb 82f 83f
6:50am 5.5ft 6s 5s 18 22 mph 1009.5mb 82f 83f
6:20am  -   -   -  20 22 mph 1009.5mb 82f 83f
5:50am 6.5ft 6s 5s 20 27 mph 1009.4mb 82f 83f
5:20am  -   -   -  22 27 mph 1009.1mb 82f 83f
4:50am 6ft 6s 5s 25 31 mph 1008.4mb 81f 83f
4:20am  -   -   -  25 29 mph 1008.3mb 81f 83f
3:50am 6ft 6s 5s 20 25 mph 1009mb 81f 83f
3:20am  -   -   -  22 27 mph 1009.2mb 81f 83f
2:50am 6ft 6s 5s 25 29 mph 1009.5mb 81f 83f
2:20am  -   -   -  22 27 mph 1009.7mb 81f 83f
1:50am 5ft 6s 5s 25 29 mph 1009.6mb 82f 82f
1:20am  -   -   -  25 29 mph 1009.9mb 82f 82f
12:50am 5ft 5s 5s 25 29 mph 1010.3mb 82f 82f
12:20am  -   -   -  22 27 mph 1010.5mb 82f 82f
Sun 07/27 11:50pm 4.5ft 5s 4s 22 29 mph 1010.8mb 82f 82f
11:20pm  -   -   -  22 27 mph 1011.1mb 82f 82f
10:50pm 4.5ft 5s 4s 22 27 mph 1011.3mb 82f 82f
10:20pm  -   -   -  25 29 mph 1011.1mb 82f 82f
9:50pm 4ft 4s 4s 25 27 mph 1010.9mb 82f 82f
9:20pm  -   -   -  22 27 mph 1010.9mb 82f 83f
8:50pm 3.5ft 6s 4s 22 25 mph 1011mb 82f 83f
8:20pm  -   -   -  20 22 mph 1011.2mb 82f 83f
7:50pm 3ft 5s 4s 20 22 mph 1011mb 82f 83f
7:20pm  -   -   -  20 22 mph 1011.2mb 82f 83f
6:50pm 3ft 5s 4s 18 20 mph 1011.3mb 82f 83f
6:20pm  -   -   -  18 20 mph 1011.4mb 82f 83f
5:50pm 3ft 5s 4s 16 18 mph 1011.9mb 82f 83f
5:20pm  -   -   -  16 18 mph 1012.1mb 82f 82f
4:50pm 2.5ft 5s 4s 16 20 mph 1012.4mb 82f 83f
4:20pm  -   -   -  16 20 mph 1012.5mb 82f 83f
3:50pm 3ft 5s 4s 13 16 mph 1012.9mb 82f 83f
3:20pm  -   -   -  16 18 mph 1012.9mb 82f 83f
2:50pm 2.5ft 5s 4s 13 18 mph 1013mb 82f 83f
2:20pm  -   -   -  13 16 mph 1013.4mb 82f 83f
1:50pm 2.5ft 5s 4s 13 16 mph 1013.8mb 82f 82f
1:20pm  -   -   -  13 16 mph 1014.5mb 82f 82f
12:50pm 2.5ft 5s 4s 16 18 mph 1014.7mb 82f 82f
12:20pm  -   -   -  18 20 mph 1014.6mb 82f 82f
11:50am 2.5ft 5s 4s 18 20 mph 1014.4mb 82f 82f
11:20am  -   -   -  16 18 mph 1014.2mb 82f 82f
10:50am 2.5ft 5s 4s 13 16 mph 1014.3mb 82f 82f
9:50am 2.5ft 5s 4s 13 16 mph 1014.6mb 81f 81f
9:20am  -   -   -  11
mph
1014.7mb 81f 82f
8:50am 3ft 5s 4s 9 11 mph 1014.8mb 81f 81f
8:20am  -   -   -  9 11 mph 1014.9mb 81f 81f
7:50am 3ft 5s 5s 9 11 mph 1014.8mb 81f 81f
7:20am  -   -   -  9 11 mph 1014.5mb 81f 81f
6:50am 3ft 5s 4s 9 11 mph 1014.6mb 81f 81f
6:20am  -   -   -  11 13 mph 1014.4mb 81f 81f
5:50am 3ft 5s 4s 11 13 mph 1014.5mb 81f 81f
5:20am  -   -   -  13 16 mph 1014.3mb 81f 81f
4:50am 3.5ft 6s 4s 13 16 mph 1014.2mb 81f 81f
4:20am  -   -   -  13
mph
1014.2mb 81f 81f
3:50am 3ft 6s 4s 11 13 mph 1013.9mb 81f 81f
3:20am  -   -   -  13 16 mph 1014.2mb 81f 81f
2:50am 3ft 5s 4s 13 16 mph 1014.1mb 81f 81f
2:20am  -   -   -  13 18 mph 1014.2mb 81f 81f
1:50am 3ft 6s 4s 13 16 mph 1014.8mb 81f 81f
1:20am  -   -   -  16 18 mph 1015.2mb 81f 81f
12:50am 2.5ft 6s 4s 13 16 mph 1015.7mb 81f 81f
12:20am  -   -   -  13 16 mph 1016mb 82f 81f
Sat 07/26 11:50pm 3ft 6s 4s 13 16 mph 1016.1mb 82f 81f
11:20pm  -   -   -  13 16 mph 1016mb 82f 81f
10:50pm 2.5ft 6s 4s 13 16 mph 1016.1mb 82f 81f
10:20pm  -   -   -  13 16 mph 1016.1mb 82f 81f
9:50pm 2.5ft 5s 4s 13 16 mph 1015.9mb 82f 81f
9:20pm  -   -   -  13 16 mph 1015.7mb 82f 81f
8:50pm 2.5ft 5s 4s 16 18 mph 1015.1mb 82f 81f
8:20pm  -   -   -  13 16 mph 1015.2mb 82f 81f
7:50pm 2.5ft 5s 4s 13 16 mph 1015mb 82f 81f
7:20pm  -   -   -  13 16 mph 1014.7mb 82f 81f
6:50pm 2.5ft 6s 5s 13 16 mph 1014.9mb 82f 81f
6:20pm  -   -   -  13 16 mph 1015mb 82f 81f
5:50pm 2.5ft 6s 5s 13 16 mph 1015.3mb 82f 81f
5:20pm  -   -   -  9 11 mph 1015.6mb 82f 82f
4:50pm 2.5ft 6s 5s 11
mph
1015.7mb 83f 81f
4:20pm  -   -   -  9
mph
1015.9mb 83f 81f
3:50pm 2.5ft 6s 5s 9 11 mph 1016.3mb 83f 81f
3:20pm  -   -   -  9 11 mph 1016.2mb 83f 81f
2:50pm 2.5ft 6s 5s 9 11 mph 1016.2mb 83f 81f
2:20pm  -   -   -  7 9 mph 1016.4mb 83f 81f
1:50pm 3ft 6s 5s 7
mph
1016.6mb 83f 81f
1:20pm  -   -   -  4
mph
1017.2mb 82f 81f
12:50pm 2.5ft 6s 5s 7
mph
1016.8mb 82f 80f
12:20pm  -   -   -  7 9 mph 1016.9mb 82f 80f
11:50am 2.5ft 6s 5s 7
mph
1017mb 82f 80f
11:20am  -   -   -  4 7 mph 1017.1mb 82f 81f
10:50am 2.5ft 6s 5s 4 7 mph 1017.2mb 82f 81f
10:20am  -   -   -  2
mph
1016.8mb 82f 81f
9:50am 2.5ft 7s 5s 2
mph
1016.6mb 81f 81f
9:20am  -   -   -  4
mph
1016.7mb 81f 81f
8:50am 2.5ft 5s 5s 2 4 mph 1016.8mb 81f 80f
8:20am  -   -   -   -  2 mph 1016.7mb 81f 80f
7:50am 2.5ft 6s 5s 4
mph
1016.7mb 81f 80f
7:20am  -   -   -  4 7 mph 1016.4mb 81f 80f
6:50am 2.5ft 7s 5s 4
mph
1016mb 81f 80f
6:20am  -   -   -  7 9 mph 1016.1mb 81f 80f
5:50am 2.5ft 6s 5s 7 9 mph 1016mb 81f 80f
5:20am  -   -   -  11
mph
1015.9mb 81f 80f
4:50am 2.5ft 6s 5s 7 9 mph 1015.6mb 81f 80f
4:20am  -   -   -  4 7 mph 1015.6mb 81f 80f
3:50am 2.5ft 6s 5s 7
mph
1015.6mb 81f 80f
3:20am  -   -   -  4
mph
1015.7mb 81f 79f
2:50am 2.5ft 6s 5s 2
mph
1015.9mb 81f 79f
2:20am  -   -   -   -  mph 1016.2mb 81f 79f
1:50am 3ft 6s 5s 2 4 mph 1016.6mb 81f 80f
1:20am  -   -   -  2
mph
1016.9mb 81f 80f
12:50am 3ft 6s 5s 2 4 mph 1016.8mb 81f 79f
12:20am  -   -   -  7
mph
1017.1mb 81f 78f
Fri 07/25 11:50pm 3ft 7s 5s 9 11 mph 1017.3mb 81f 78f
11:20pm  -   -   -  9
mph
1017.6mb 81f 80f
10:50pm 3ft 6s 5s 11 13 mph 1017.4mb 81f 80f
10:20pm  -   -   -  11 13 mph 1017.2mb 81f 80f
9:50pm 3ft 6s 5s 11 13 mph 1017.1mb 81f 80f